»·PEaware :: SKY55 KFHR-KORS

SKY55 :: KFHR-KORS

FLIGHT INFORMATION

Flight Status: Arrived
Operator:
Sky High Charters
More flights by this operator :: More flights under this callsign
Pilot: Sean N. (11321)
Aircraft: BEECH AIRCRAFT BARON
(BE58)
More flights by this aircraft type
Origin: KFHR Friday Harbor
United States
Destination: KORS Orcas Island
United States
More flights between these airports :: More routes between these airports
Route: FHR APDON
File this flight plan on PilotEdge
Remarks: ODP
Altitude:
(Current/Filed)
5,000ft
Speed:
(Current/Filed)
170kts
Departed: 24-Apr-20 08:33 AM
Arrived: 24-Apr-20 08:56 AM
Distance/Time
Traveled:
12nm/0:23
Distance/Time
To Go:
Arrived

Flight Plot

Page will automatically refresh every two minutes.

Flight plan parsing failed; only flown route is shown


Map Options




Map Legend


Flown Route
Filed Route
Departure Airport
Arrival Airport
Navaid (VOR, NDB)
Fix

Horizontal Profiles

Position Reports

Time Latitude Longitude Heading Altitude Ground
Speed
24-Apr-20 08:17 48.524917 -123.026053 357 115ft 0kts
24-Apr-20 08:18 48.524917 -123.026053 357 115ft 0kts
24-Apr-20 08:19 48.524917 -123.026053 357 115ft 0kts
24-Apr-20 08:20 48.524917 -123.026053 357 115ft 0kts
24-Apr-20 08:21 48.524917 -123.026053 357 115ft 0kts
24-Apr-20 08:22 48.524917 -123.026053 357 115ft 0kts
24-Apr-20 08:23 48.524917 -123.026053 357 115ft 0kts
24-Apr-20 08:24 48.524917 -123.026053 357 115ft 0kts
24-Apr-20 08:25 48.524917 -123.026053 357 115ft 0kts
24-Apr-20 08:26 48.522667 -123.025013 177 103ft 27kts
24-Apr-20 08:26 48.517459 -123.024448 325 87ft 8kts
24-Apr-20 08:28 48.525935 -123.025310 0 114ft 19kts
24-Apr-20 08:29 48.526489 -123.025318 34 116ft 0kts
24-Apr-20 08:29 48.526524 -123.025258 57 116ft 0kts
24-Apr-20 08:31 48.526524 -123.025258 57 116ft 0kts
24-Apr-20 08:31 48.526555 -123.025141 76 116ft 7kts
24-Apr-20 08:32 48.508757 -123.022328 172 515ft 119kts
24-Apr-20 08:34 48.502571 -122.989963 357 2130ft 129kts
24-Apr-20 08:34 48.512235 -123.029385 264 2789ft 154kts
24-Apr-20 08:35 48.542156 -123.034263 52 3467ft 148kts
24-Apr-20 08:36 48.563550 -122.981303 16 4064ft 159kts
24-Apr-20 08:37 48.604218 -122.955067 30 4671ft 160kts
24-Apr-20 08:38 48.643244 -122.919002 27 5000ft 171kts
24-Apr-20 08:39 48.688016 -122.887268 23 4907ft 180kts
24-Apr-20 08:40 48.734255 -122.857010 21 4894ft 180kts
24-Apr-20 08:41 48.780564 -122.827053 21 4885ft 180kts
24-Apr-20 08:42 48.826821 -122.797068 21 4886ft 180kts
24-Apr-20 08:43 48.872786 -122.767216 21 4887ft 180kts
24-Apr-20 08:44 48.919660 -122.747848 344 4917ft 173kts
24-Apr-20 08:45 48.970406 -122.768488 1 3851ft 208kts
24-Apr-20 08:46 48.970035 -122.721635 208 2309ft 157kts
24-Apr-20 08:47 48.933470 -122.740458 192 1990ft 137kts
24-Apr-20 08:48 48.899810 -122.760166 211 1928ft 130kts
24-Apr-20 08:49 48.870182 -122.785635 208 1876ft 125kts
24-Apr-20 08:50 48.840145 -122.806728 200 2048ft 115kts
24-Apr-20 08:51 48.810659 -122.835620 208 2012ft 131kts
24-Apr-20 08:52 48.777894 -122.863292 212 1715ft 147kts
24-Apr-20 08:53 48.745412 -122.892031 205 755ft 125kts
24-Apr-20 08:54 48.718014 -122.910572 180 104ft 100kts
24-Apr-20 08:55 48.704564 -122.910568 155 39ft 12kts
24-Apr-20 08:56 48.705103 -122.909675 359 36ft 0kts
24-Apr-20 08:57 48.705103 -122.909675 359 36ft 0kts
24-Apr-20 08:58 48.705103 -122.909675 359 36ft 0kts
24-Apr-20 08:59 48.705103 -122.909675 359 36ft 0kts
24-Apr-20 09:00 48.705103 -122.909675 359 36ft 0kts
24-Apr-20 09:01 48.705103 -122.909675 359 36ft 0kts
24-Apr-20 09:02 48.705103 -122.909675 359 36ft 0kts
24-Apr-20 09:03 48.705103 -122.909675 359 36ft 0kts
24-Apr-20 09:04 48.705103 -122.909675 359 36ft 0kts
24-Apr-20 09:05 48.705103 -122.909675 359 36ft 0kts
24-Apr-20 09:06 48.705103 -122.909675 359 36ft 0kts
24-Apr-20 09:07 48.705103 -122.909675 359 36ft 0kts
24-Apr-20 09:08 48.705103 -122.909675 359 36ft 0kts

Navigation Log

Ident Type
Flight plan parsing failed, navigation log unavailable